sensor_id;sensor_type;location;lat;lon;timestamp;P1;durP1;ratioP1;P2;durP2;ratioP2
72117;SDS011;59992;47.490;8.736;2023-12-04T00:01:56;26.30;;;9.90;;
72117;SDS011;59992;47.490;8.736;2023-12-04T00:04:45;25.80;;;10.10;;
72117;SDS011;59992;47.490;8.736;2023-12-04T00:07:33;19.60;;;7.30;;
72117;SDS011;59992;47.490;8.736;2023-12-04T00:10:21;21.20;;;7.50;;
72117;SDS011;59992;47.490;8.736;2023-12-04T00:13:09;23.50;;;9.10;;
72117;SDS011;59992;47.490;8.736;2023-12-04T00:15:56;24.40;;;9.20;;
72117;SDS011;59992;47.490;8.736;2023-12-04T00:18:45;28.30;;;10.60;;
72117;SDS011;59992;47.490;8.736;2023-12-04T00:21:33;24.70;;;9.20;;
72117;SDS011;59992;47.490;8.736;2023-12-04T00:24:21;23.70;;;8.10;;
72117;SDS011;59992;47.490;8.736;2023-12-04T00:27:09;20.60;;;7.00;;
72117;SDS011;59992;47.490;8.736;2023-12-04T00:29:58;23.80;;;8.60;;
72117;SDS011;59992;47.490;8.736;2023-12-04T00:32:46;23.00;;;8.80;;
72117;SDS011;59992;47.490;8.736;2023-12-04T00:35:34;26.10;;;10.70;;
72117;SDS011;59992;47.490;8.736;2023-12-04T00:38:23;26.20;;;9.90;;
72117;SDS011;59992;47.490;8.736;2023-12-04T00:41:11;24.00;;;9.40;;
72117;SDS011;59992;47.490;8.736;2023-12-04T00:43:59;21.90;;;9.00;;
72117;SDS011;59992;47.490;8.736;2023-12-04T00:46:48;22.10;;;9.60;;
72117;SDS011;59992;47.490;8.736;2023-12-04T00:49:36;23.00;;;9.30;;
72117;SDS011;59992;47.490;8.736;2023-12-04T00:52:24;26.60;;;9.70;;
72117;SDS011;59992;47.490;8.736;2023-12-04T00:55:13;28.30;;;10.10;;
72117;SDS011;59992;47.490;8.736;2023-12-04T00:58:01;25.40;;;9.70;;
72117;SDS011;59992;47.490;8.736;2023-12-04T01:00:49;22.70;;;9.30;;
72117;SDS011;59992;47.490;8.736;2023-12-04T01:03:39;25.90;;;9.80;;
72117;SDS011;59992;47.490;8.736;2023-12-04T01:06:27;20.40;;;8.40;;
72117;SDS011;59992;47.490;8.736;2023-12-04T01:09:15;25.00;;;9.90;;
72117;SDS011;59992;47.490;8.736;2023-12-04T01:12:04;22.80;;;9.30;;
72117;SDS011;59992;47.490;8.736;2023-12-04T01:14:53;22.60;;;9.80;;
72117;SDS011;59992;47.490;8.736;2023-12-04T01:17:41;23.70;;;10.20;;
72117;SDS011;59992;47.490;8.736;2023-12-04T01:20:29;21.80;;;8.60;;
72117;SDS011;59992;47.490;8.736;2023-12-04T01:23:20;21.60;;;8.80;;
72117;SDS011;59992;47.490;8.736;2023-12-04T01:26:11;14.80;;;5.90;;
72117;SDS011;59992;47.490;8.736;2023-12-04T01:28:59;18.30;;;8.60;;
72117;SDS011;59992;47.490;8.736;2023-12-04T01:31:47;23.30;;;9.30;;
72117;SDS011;59992;47.490;8.736;2023-12-04T01:34:35;21.40;;;8.90;;
72117;SDS011;59992;47.490;8.736;2023-12-04T01:37:24;21.60;;;9.30;;
72117;SDS011;59992;47.490;8.736;2023-12-04T01:40:12;20.00;;;7.70;;
72117;SDS011;59992;47.490;8.736;2023-12-04T01:43:00;18.80;;;7.30;;
72117;SDS011;59992;47.490;8.736;2023-12-04T01:45:49;21.40;;;8.00;;
72117;SDS011;59992;47.490;8.736;2023-12-04T01:48:39;15.10;;;6.00;;
72117;SDS011;59992;47.490;8.736;2023-12-04T01:51:27;19.10;;;7.40;;
72117;SDS011;59992;47.490;8.736;2023-12-04T01:54:16;18.00;;;6.90;;
72117;SDS011;59992;47.490;8.736;2023-12-04T01:57:05;25.10;;;9.10;;
72117;SDS011;59992;47.490;8.736;2023-12-04T01:59:53;18.20;;;7.60;;
72117;SDS011;59992;47.490;8.736;2023-12-04T02:02:42;25.20;;;9.50;;
72117;SDS011;59992;47.490;8.736;2023-12-04T02:05:30;26.30;;;9.20;;
72117;SDS011;59992;47.490;8.736;2023-12-04T02:08:19;24.10;;;9.20;;
72117;SDS011;59992;47.490;8.736;2023-12-04T02:11:08;23.00;;;8.70;;
72117;SDS011;59992;47.490;8.736;2023-12-04T02:13:56;21.90;;;8.40;;
72117;SDS011;59992;47.490;8.736;2023-12-04T02:16:44;22.30;;;9.70;;
72117;SDS011;59992;47.490;8.736;2023-12-04T02:19:34;27.40;;;9.50;;
72117;SDS011;59992;47.490;8.736;2023-12-04T02:22:22;26.70;;;9.70;;
72117;SDS011;59992;47.490;8.736;2023-12-04T02:25:09;25.10;;;9.50;;
72117;SDS011;59992;47.490;8.736;2023-12-04T02:27:59;31.40;;;9.80;;
72117;SDS011;59992;47.490;8.736;2023-12-04T02:30:48;25.40;;;9.80;;
72117;SDS011;59992;47.490;8.736;2023-12-04T02:33:37;28.80;;;9.40;;
72117;SDS011;59992;47.490;8.736;2023-12-04T02:36:28;29.00;;;9.00;;
72117;SDS011;59992;47.490;8.736;2023-12-04T02:39:17;28.60;;;10.60;;
72117;SDS011;59992;47.490;8.736;2023-12-04T02:42:06;24.00;;;9.30;;
72117;SDS011;59992;47.490;8.736;2023-12-04T02:44:54;27.60;;;10.20;;
72117;SDS011;59992;47.490;8.736;2023-12-04T02:47:42;33.20;;;8.40;;
72117;SDS011;59992;47.490;8.736;2023-12-04T02:50:30;30.90;;;10.50;;
72117;SDS011;59992;47.490;8.736;2023-12-04T02:53:18;30.10;;;10.00;;
72117;SDS011;59992;47.490;8.736;2023-12-04T02:56:07;30.10;;;9.30;;
72117;SDS011;59992;47.490;8.736;2023-12-04T02:58:57;31.20;;;10.20;;
72117;SDS011;59992;47.490;8.736;2023-12-04T03:01:44;30.30;;;9.70;;
72117;SDS011;59992;47.490;8.736;2023-12-04T03:04:32;26.80;;;9.60;;
72117;SDS011;59992;47.490;8.736;2023-12-04T03:07:22;32.60;;;10.00;;
72117;SDS011;59992;47.490;8.736;2023-12-04T03:10:11;23.20;;;8.90;;
72117;SDS011;59992;47.490;8.736;2023-12-04T03:12:59;27.50;;;9.90;;
72117;SDS011;59992;47.490;8.736;2023-12-04T03:15:47;29.50;;;9.10;;
72117;SDS011;59992;47.490;8.736;2023-12-04T03:18:36;30.10;;;9.50;;
72117;SDS011;59992;47.490;8.736;2023-12-04T03:21:24;28.40;;;10.70;;
72117;SDS011;59992;47.490;8.736;2023-12-04T03:24:12;25.40;;;9.10;;
72117;SDS011;59992;47.490;8.736;2023-12-04T03:27:00;22.00;;;8.20;;
72117;SDS011;59992;47.490;8.736;2023-12-04T03:29:48;21.20;;;7.60;;
72117;SDS011;59992;47.490;8.736;2023-12-04T03:32:37;20.80;;;7.60;;
72117;SDS011;59992;47.490;8.736;2023-12-04T03:35:25;25.10;;;8.50;;
72117;SDS011;59992;47.490;8.736;2023-12-04T03:38:13;24.60;;;9.10;;
72117;SDS011;59992;47.490;8.736;2023-12-04T03:41:01;27.70;;;9.20;;
72117;SDS011;59992;47.490;8.736;2023-12-04T03:43:49;25.50;;;9.30;;
72117;SDS011;59992;47.490;8.736;2023-12-04T03:46:37;27.60;;;9.30;;
72117;SDS011;59992;47.490;8.736;2023-12-04T03:49:25;22.60;;;8.50;;
72117;SDS011;59992;47.490;8.736;2023-12-04T03:52:13;23.40;;;8.80;;
72117;SDS011;59992;47.490;8.736;2023-12-04T03:55:02;21.20;;;8.10;;
72117;SDS011;59992;47.490;8.736;2023-12-04T03:57:52;24.90;;;9.70;;
72117;SDS011;59992;47.490;8.736;2023-12-04T04:00:40;25.10;;;9.10;;
72117;SDS011;59992;47.490;8.736;2023-12-04T04:03:30;27.00;;;9.80;;
72117;SDS011;59992;47.490;8.736;2023-12-04T04:06:18;30.10;;;9.90;;
72117;SDS011;59992;47.490;8.736;2023-12-04T04:09:06;26.50;;;8.90;;
72117;SDS011;59992;47.490;8.736;2023-12-04T04:11:55;22.90;;;8.50;;
72117;SDS011;59992;47.490;8.736;2023-12-04T04:14:43;25.80;;;9.20;;
72117;SDS011;59992;47.490;8.736;2023-12-04T04:17:32;28.10;;;10.60;;
72117;SDS011;59992;47.490;8.736;2023-12-04T04:20:20;25.20;;;9.30;;
72117;SDS011;59992;47.490;8.736;2023-12-04T04:23:08;27.10;;;9.60;;
72117;SDS011;59992;47.490;8.736;2023-12-04T04:25:57;21.30;;;7.80;;
72117;SDS011;59992;47.490;8.736;2023-12-04T04:28:46;21.60;;;8.70;;
72117;SDS011;59992;47.490;8.736;2023-12-04T04:31:34;27.60;;;8.90;;
72117;SDS011;59992;47.490;8.736;2023-12-04T04:34:22;24.40;;;8.70;;
72117;SDS011;59992;47.490;8.736;2023-12-04T04:37:10;27.20;;;9.50;;
72117;SDS011;59992;47.490;8.736;2023-12-04T04:40:02;18.20;;;7.90;;
72117;SDS011;59992;47.490;8.736;2023-12-04T04:42:52;21.10;;;8.30;;
72117;SDS011;59992;47.490;8.736;2023-12-04T04:45:40;23.80;;;9.00;;
72117;SDS011;59992;47.490;8.736;2023-12-04T04:48:28;20.80;;;7.70;;
72117;SDS011;59992;47.490;8.736;2023-12-04T04:51:16;21.40;;;7.60;;
72117;SDS011;59992;47.490;8.736;2023-12-04T04:54:04;20.20;;;7.50;;
72117;SDS011;59992;47.490;8.736;2023-12-04T04:56:52;24.40;;;8.20;;
72117;SDS011;59992;47.490;8.736;2023-12-04T04:59:40;22.30;;;8.60;;
72117;SDS011;59992;47.490;8.736;2023-12-04T05:02:28;14.10;;;5.30;;
72117;SDS011;59992;47.490;8.736;2023-12-04T05:05:17;20.10;;;8.00;;
72117;SDS011;59992;47.490;8.736;2023-12-04T05:08:06;20.60;;;8.00;;
72117;SDS011;59992;47.490;8.736;2023-12-04T05:10:54;20.20;;;7.40;;
72117;SDS011;59992;47.490;8.736;2023-12-04T05:13:42;18.10;;;7.20;;
72117;SDS011;59992;47.490;8.736;2023-12-04T05:16:31;22.90;;;7.60;;
72117;SDS011;59992;47.490;8.736;2023-12-04T05:19:19;21.70;;;7.70;;
72117;SDS011;59992;47.490;8.736;2023-12-04T05:22:08;17.00;;;6.20;;
72117;SDS011;59992;47.490;8.736;2023-12-04T05:24:56;20.00;;;6.80;;
72117;SDS011;59992;47.490;8.736;2023-12-04T05:27:44;15.90;;;5.50;;
72117;SDS011;59992;47.490;8.736;2023-12-04T05:30:32;15.60;;;5.20;;
72117;SDS011;59992;47.490;8.736;2023-12-04T05:33:20;17.10;;;6.10;;
72117;SDS011;59992;47.490;8.736;2023-12-04T05:36:09;24.60;;;8.40;;
72117;SDS011;59992;47.490;8.736;2023-12-04T05:38:57;19.40;;;6.00;;
72117;SDS011;59992;47.490;8.736;2023-12-04T05:41:46;21.40;;;7.60;;
72117;SDS011;59992;47.490;8.736;2023-12-04T05:44:34;24.60;;;7.90;;
72117;SDS011;59992;47.490;8.736;2023-12-04T05:47:23;22.70;;;8.10;;
72117;SDS011;59992;47.490;8.736;2023-12-04T05:50:11;25.20;;;9.20;;
72117;SDS011;59992;47.490;8.736;2023-12-04T05:52:59;20.60;;;6.70;;
72117;SDS011;59992;47.490;8.736;2023-12-04T05:55:47;19.40;;;6.90;;
72117;SDS011;59992;47.490;8.736;2023-12-04T05:58:35;17.70;;;6.00;;
72117;SDS011;59992;47.490;8.736;2023-12-04T06:01:23;16.10;;;6.50;;
72117;SDS011;59992;47.490;8.736;2023-12-04T06:04:11;21.20;;;7.40;;
72117;SDS011;59992;47.490;8.736;2023-12-04T06:07:00;22.50;;;8.80;;
72117;SDS011;59992;47.490;8.736;2023-12-04T06:09:47;21.20;;;7.90;;
72117;SDS011;59992;47.490;8.736;2023-12-04T06:12:36;23.50;;;8.20;;
72117;SDS011;59992;47.490;8.736;2023-12-04T06:15:24;21.60;;;6.90;;
72117;SDS011;59992;47.490;8.736;2023-12-04T06:18:12;23.10;;;8.40;;
72117;SDS011;59992;47.490;8.736;2023-12-04T06:21:01;23.10;;;7.00;;
72117;SDS011;59992;47.490;8.736;2023-12-04T06:23:50;21.90;;;8.10;;
72117;SDS011;59992;47.490;8.736;2023-12-04T06:26:39;26.30;;;8.80;;
72117;SDS011;59992;47.490;8.736;2023-12-04T06:29:30;20.00;;;6.90;;
72117;SDS011;59992;47.490;8.736;2023-12-04T06:32:19;19.20;;;6.80;;
72117;SDS011;59992;47.490;8.736;2023-12-04T06:35:09;18.40;;;6.80;;
72117;SDS011;59992;47.490;8.736;2023-12-04T06:37:59;22.80;;;8.00;;
72117;SDS011;59992;47.490;8.736;2023-12-04T06:40:53;24.10;;;8.00;;
72117;SDS011;59992;47.490;8.736;2023-12-04T06:43:42;21.00;;;7.70;;
72117;SDS011;59992;47.490;8.736;2023-12-04T06:46:31;26.40;;;8.50;;
72117;SDS011;59992;47.490;8.736;2023-12-04T06:49:24;22.50;;;8.30;;
72117;SDS011;59992;47.490;8.736;2023-12-04T06:52:14;26.90;;;8.90;;
72117;SDS011;59992;47.490;8.736;2023-12-04T06:55:03;20.60;;;6.80;;
72117;SDS011;59992;47.490;8.736;2023-12-04T06:57:52;21.60;;;7.90;;
72117;SDS011;59992;47.490;8.736;2023-12-04T07:00:40;18.00;;;7.10;;
72117;SDS011;59992;47.490;8.736;2023-12-04T07:03:29;21.90;;;7.90;;
72117;SDS011;59992;47.490;8.736;2023-12-04T07:06:17;19.00;;;6.80;;
72117;SDS011;59992;47.490;8.736;2023-12-04T07:09:05;24.30;;;8.00;;
72117;SDS011;59992;47.490;8.736;2023-12-04T07:11:55;26.10;;;9.50;;
72117;SDS011;59992;47.490;8.736;2023-12-04T07:14:43;22.80;;;8.20;;
72117;SDS011;59992;47.490;8.736;2023-12-04T07:17:32;19.80;;;6.60;;
72117;SDS011;59992;47.490;8.736;2023-12-04T07:20:20;26.40;;;9.00;;
72117;SDS011;59992;47.490;8.736;2023-12-04T07:23:10;23.40;;;7.80;;
72117;SDS011;59992;47.490;8.736;2023-12-04T07:25:59;19.50;;;6.70;;
72117;SDS011;59992;47.490;8.736;2023-12-04T07:28:47;23.50;;;8.80;;
72117;SDS011;59992;47.490;8.736;2023-12-04T07:31:35;22.80;;;8.60;;
72117;SDS011;59992;47.490;8.736;2023-12-04T07:34:24;22.50;;;8.80;;
72117;SDS011;59992;47.490;8.736;2023-12-04T07:37:12;24.70;;;9.50;;
72117;SDS011;59992;47.490;8.736;2023-12-04T07:40:00;20.40;;;7.30;;
72117;SDS011;59992;47.490;8.736;2023-12-04T07:42:48;24.60;;;9.20;;
72117;SDS011;59992;47.490;8.736;2023-12-04T07:45:36;28.90;;;9.00;;
72117;SDS011;59992;47.490;8.736;2023-12-04T07:48:24;26.30;;;9.30;;
72117;SDS011;59992;47.490;8.736;2023-12-04T07:51:12;18.50;;;7.00;;
72117;SDS011;59992;47.490;8.736;2023-12-04T07:54:00;26.40;;;9.30;;
72117;SDS011;59992;47.490;8.736;2023-12-04T07:56:49;21.20;;;7.70;;
72117;SDS011;59992;47.490;8.736;2023-12-04T07:59:37;28.20;;;9.30;;
72117;SDS011;59992;47.490;8.736;2023-12-04T08:02:25;27.80;;;9.60;;
72117;SDS011;59992;47.490;8.736;2023-12-04T08:05:12;22.80;;;8.20;;
72117;SDS011;59992;47.490;8.736;2023-12-04T08:08:01;26.50;;;9.70;;
72117;SDS011;59992;47.490;8.736;2023-12-04T08:10:49;26.60;;;9.50;;
72117;SDS011;59992;47.490;8.736;2023-12-04T08:13:43;25.40;;;9.00;;
72117;SDS011;59992;47.490;8.736;2023-12-04T08:16:31;31.60;;;10.50;;
72117;SDS011;59992;47.490;8.736;2023-12-04T08:19:19;25.90;;;10.40;;
72117;SDS011;59992;47.490;8.736;2023-12-04T08:22:07;31.30;;;11.90;;
72117;SDS011;59992;47.490;8.736;2023-12-04T08:24:55;28.10;;;9.30;;
72117;SDS011;59992;47.490;8.736;2023-12-04T08:27:50;26.00;;;8.80;;
72117;SDS011;59992;47.490;8.736;2023-12-04T08:30:38;25.50;;;8.80;;
72117;SDS011;59992;47.490;8.736;2023-12-04T08:33:26;28.30;;;10.00;;
72117;SDS011;59992;47.490;8.736;2023-12-04T08:36:14;23.70;;;9.40;;
72117;SDS011;59992;47.490;8.736;2023-12-04T08:39:02;28.30;;;10.50;;
72117;SDS011;59992;47.490;8.736;2023-12-04T08:41:51;28.50;;;11.10;;
72117;SDS011;59992;47.490;8.736;2023-12-04T08:44:39;32.00;;;11.20;;
72117;SDS011;59992;47.490;8.736;2023-12-04T08:47:27;27.80;;;10.00;;
72117;SDS011;59992;47.490;8.736;2023-12-04T08:50:15;29.80;;;10.10;;
72117;SDS011;59992;47.490;8.736;2023-12-04T08:53:03;29.60;;;10.70;;
72117;SDS011;59992;47.490;8.736;2023-12-04T08:55:52;28.30;;;10.40;;
72117;SDS011;59992;47.490;8.736;2023-12-04T08:58:39;31.20;;;12.00;;
72117;SDS011;59992;47.490;8.736;2023-12-04T09:01:27;32.10;;;10.90;;
72117;SDS011;59992;47.490;8.736;2023-12-04T09:04:15;28.60;;;10.20;;
72117;SDS011;59992;47.490;8.736;2023-12-04T09:07:04;32.30;;;11.20;;
72117;SDS011;59992;47.490;8.736;2023-12-04T09:09:52;29.50;;;10.30;;
72117;SDS011;59992;47.490;8.736;2023-12-04T09:12:40;29.30;;;10.20;;
72117;SDS011;59992;47.490;8.736;2023-12-04T09:15:28;28.40;;;10.50;;
72117;SDS011;59992;47.490;8.736;2023-12-04T09:18:16;28.90;;;10.50;;
72117;SDS011;59992;47.490;8.736;2023-12-04T09:21:04;28.20;;;11.20;;
72117;SDS011;59992;47.490;8.736;2023-12-04T09:23:54;29.80;;;11.50;;
72117;SDS011;59992;47.490;8.736;2023-12-04T09:26:42;30.30;;;11.10;;
72117;SDS011;59992;47.490;8.736;2023-12-04T09:29:30;26.90;;;10.10;;
72117;SDS011;59992;47.490;8.736;2023-12-04T09:32:18;28.90;;;10.30;;
72117;SDS011;59992;47.490;8.736;2023-12-04T09:35:06;25.70;;;10.20;;
72117;SDS011;59992;47.490;8.736;2023-12-04T09:37:54;28.40;;;10.10;;
72117;SDS011;59992;47.490;8.736;2023-12-04T09:40:43;23.20;;;9.00;;
72117;SDS011;59992;47.490;8.736;2023-12-04T09:43:32;24.20;;;9.20;;
72117;SDS011;59992;47.490;8.736;2023-12-04T09:46:20;23.80;;;9.80;;
72117;SDS011;59992;47.490;8.736;2023-12-04T09:49:08;31.80;;;10.10;;
72117;SDS011;59992;47.490;8.736;2023-12-04T09:51:57;25.30;;;10.90;;
72117;SDS011;59992;47.490;8.736;2023-12-04T09:54:47;26.00;;;10.50;;
72117;SDS011;59992;47.490;8.736;2023-12-04T09:57:37;26.40;;;10.00;;
72117;SDS011;59992;47.490;8.736;2023-12-04T10:00:26;24.30;;;9.10;;
72117;SDS011;59992;47.490;8.736;2023-12-04T10:03:15;28.70;;;11.20;;
72117;SDS011;59992;47.490;8.736;2023-12-04T10:06:04;29.10;;;11.10;;
72117;SDS011;59992;47.490;8.736;2023-12-04T10:08:55;27.20;;;9.70;;
72117;SDS011;59992;47.490;8.736;2023-12-04T10:11:45;22.60;;;9.50;;
72117;SDS011;59992;47.490;8.736;2023-12-04T10:14:33;29.60;;;10.20;;
72117;SDS011;59992;47.490;8.736;2023-12-04T10:17:21;27.80;;;10.10;;
72117;SDS011;59992;47.490;8.736;2023-12-04T10:20:10;22.90;;;8.70;;
72117;SDS011;59992;47.490;8.736;2023-12-04T10:23:02;26.10;;;9.60;;
72117;SDS011;59992;47.490;8.736;2023-12-04T10:25:51;35.10;;;11.60;;
72117;SDS011;59992;47.490;8.736;2023-12-04T10:28:39;44.50;;;13.80;;
72117;SDS011;59992;47.490;8.736;2023-12-04T10:31:27;39.80;;;12.90;;
72117;SDS011;59992;47.490;8.736;2023-12-04T10:34:20;38.50;;;13.60;;
72117;SDS011;59992;47.490;8.736;2023-12-04T10:37:12;35.50;;;12.90;;
72117;SDS011;59992;47.490;8.736;2023-12-04T10:40:01;34.90;;;12.70;;
72117;SDS011;59992;47.490;8.736;2023-12-04T10:42:53;35.30;;;13.40;;
72117;SDS011;59992;47.490;8.736;2023-12-04T10:45:58;37.60;;;13.50;;
72117;SDS011;59992;47.490;8.736;2023-12-04T10:48:46;35.10;;;12.20;;
72117;SDS011;59992;47.490;8.736;2023-12-04T10:51:35;40.30;;;13.10;;
72117;SDS011;59992;47.490;8.736;2023-12-04T10:54:24;35.50;;;12.10;;
72117;SDS011;59992;47.490;8.736;2023-12-04T10:57:13;33.80;;;11.50;;
72117;SDS011;59992;47.490;8.736;2023-12-04T11:00:08;40.80;;;13.00;;
72117;SDS011;59992;47.490;8.736;2023-12-04T11:03:03;32.40;;;12.00;;
72117;SDS011;59992;47.490;8.736;2023-12-04T11:05:55;32.90;;;12.20;;
72117;SDS011;59992;47.490;8.736;2023-12-04T11:08:47;36.30;;;12.20;;
72117;SDS011;59992;47.490;8.736;2023-12-04T11:11:39;33.60;;;11.90;;
72117;SDS011;59992;47.490;8.736;2023-12-04T11:14:31;38.90;;;12.50;;
72117;SDS011;59992;47.490;8.736;2023-12-04T11:17:27;43.00;;;13.60;;
72117;SDS011;59992;47.490;8.736;2023-12-04T11:20:24;35.80;;;11.80;;
72117;SDS011;59992;47.490;8.736;2023-12-04T11:23:16;33.00;;;11.00;;
72117;SDS011;59992;47.490;8.736;2023-12-04T11:26:04;27.60;;;10.20;;
72117;SDS011;59992;47.490;8.736;2023-12-04T11:28:54;27.20;;;10.50;;
72117;SDS011;59992;47.490;8.736;2023-12-04T11:31:44;28.90;;;11.30;;
72117;SDS011;59992;47.490;8.736;2023-12-04T11:34:33;24.40;;;8.90;;
72117;SDS011;59992;47.490;8.736;2023-12-04T11:37:23;25.50;;;9.50;;
72117;SDS011;59992;47.490;8.736;2023-12-04T11:40:12;25.60;;;10.60;;
72117;SDS011;59992;47.490;8.736;2023-12-04T11:43:02;28.20;;;10.70;;
72117;SDS011;59992;47.490;8.736;2023-12-04T11:46:08;32.60;;;11.80;;
72117;SDS011;59992;47.490;8.736;2023-12-04T11:48:57;29.40;;;11.00;;
72117;SDS011;59992;47.490;8.736;2023-12-04T11:52:32;28.30;;;11.20;;
72117;SDS011;59992;47.490;8.736;2023-12-04T11:55:21;30.10;;;11.00;;
72117;SDS011;59992;47.490;8.736;2023-12-04T11:58:10;30.80;;;12.10;;
72117;SDS011;59992;47.490;8.736;2023-12-04T12:00:59;25.90;;;10.70;;
72117;SDS011;59992;47.490;8.736;2023-12-04T12:03:50;29.50;;;10.80;;
72117;SDS011;59992;47.490;8.736;2023-12-04T12:06:38;29.20;;;11.10;;
72117;SDS011;59992;47.490;8.736;2023-12-04T12:09:27;28.10;;;10.60;;
72117;SDS011;59992;47.490;8.736;2023-12-04T12:12:16;29.30;;;10.90;;
72117;SDS011;59992;47.490;8.736;2023-12-04T12:15:06;27.70;;;10.60;;
72117;SDS011;59992;47.490;8.736;2023-12-04T12:17:57;32.20;;;11.50;;
72117;SDS011;59992;47.490;8.736;2023-12-04T12:20:45;31.90;;;11.20;;
72117;SDS011;59992;47.490;8.736;2023-12-04T12:23:33;30.20;;;11.60;;
72117;SDS011;59992;47.490;8.736;2023-12-04T12:26:22;28.80;;;11.10;;
72117;SDS011;59992;47.490;8.736;2023-12-04T12:29:11;27.90;;;10.90;;
72117;SDS011;59992;47.490;8.736;2023-12-04T12:31:59;29.60;;;11.20;;
72117;SDS011;59992;47.490;8.736;2023-12-04T12:34:47;32.70;;;11.60;;
72117;SDS011;59992;47.490;8.736;2023-12-04T12:37:35;25.30;;;10.90;;
72117;SDS011;59992;47.490;8.736;2023-12-04T12:40:28;27.40;;;10.90;;
72117;SDS011;59992;47.490;8.736;2023-12-04T12:43:16;29.10;;;11.10;;
72117;SDS011;59992;47.490;8.736;2023-12-04T12:46:08;31.70;;;11.00;;
72117;SDS011;59992;47.490;8.736;2023-12-04T12:48:56;27.80;;;10.40;;
72117;SDS011;59992;47.490;8.736;2023-12-04T12:51:45;26.40;;;10.00;;
72117;SDS011;59992;47.490;8.736;2023-12-04T12:54:33;26.50;;;10.90;;
72117;SDS011;59992;47.490;8.736;2023-12-04T12:57:23;28.00;;;11.40;;
72117;SDS011;59992;47.490;8.736;2023-12-04T13:00:13;30.50;;;11.20;;
72117;SDS011;59992;47.490;8.736;2023-12-04T13:03:03;30.60;;;11.50;;
72117;SDS011;59992;47.490;8.736;2023-12-04T13:05:51;34.40;;;13.40;;
72117;SDS011;59992;47.490;8.736;2023-12-04T13:08:40;34.90;;;12.90;;
72117;SDS011;59992;47.490;8.736;2023-12-04T13:11:30;35.80;;;13.60;;
72117;SDS011;59992;47.490;8.736;2023-12-04T13:14:19;32.90;;;13.10;;
72117;SDS011;59992;47.490;8.736;2023-12-04T13:17:11;34.70;;;13.20;;
72117;SDS011;59992;47.490;8.736;2023-12-04T13:20:07;37.00;;;13.10;;
72117;SDS011;59992;47.490;8.736;2023-12-04T13:22:59;37.80;;;12.80;;
72117;SDS011;59992;47.490;8.736;2023-12-04T13:25:48;37.40;;;12.90;;
72117;SDS011;59992;47.490;8.736;2023-12-04T13:28:36;32.80;;;13.20;;
72117;SDS011;59992;47.490;8.736;2023-12-04T13:31:24;41.00;;;14.20;;
72117;SDS011;59992;47.490;8.736;2023-12-04T13:34:14;40.20;;;13.80;;
72117;SDS011;59992;47.490;8.736;2023-12-04T13:37:03;34.90;;;12.40;;
72117;SDS011;59992;47.490;8.736;2023-12-04T13:39:51;34.60;;;13.10;;
72117;SDS011;59992;47.490;8.736;2023-12-04T13:42:44;38.20;;;13.80;;
72117;SDS011;59992;47.490;8.736;2023-12-04T13:45:51;37.40;;;12.80;;
72117;SDS011;59992;47.490;8.736;2023-12-04T13:48:40;37.30;;;13.00;;
72117;SDS011;59992;47.490;8.736;2023-12-04T13:51:28;30.50;;;10.80;;
72117;SDS011;59992;47.490;8.736;2023-12-04T13:54:17;33.20;;;11.80;;
72117;SDS011;59992;47.490;8.736;2023-12-04T13:57:07;34.40;;;12.40;;
72117;SDS011;59992;47.490;8.736;2023-12-04T13:59:55;31.60;;;10.80;;
72117;SDS011;59992;47.490;8.736;2023-12-04T14:02:44;35.00;;;13.30;;
72117;SDS011;59992;47.490;8.736;2023-12-04T14:05:33;39.20;;;11.70;;
72117;SDS011;59992;47.490;8.736;2023-12-04T14:08:21;39.60;;;13.40;;
72117;SDS011;59992;47.490;8.736;2023-12-04T14:11:09;31.10;;;11.10;;
72117;SDS011;59992;47.490;8.736;2023-12-04T14:13:57;36.80;;;12.80;;
72117;SDS011;59992;47.490;8.736;2023-12-04T14:16:46;39.60;;;13.20;;
72117;SDS011;59992;47.490;8.736;2023-12-04T14:19:35;37.90;;;13.90;;
72117;SDS011;59992;47.490;8.736;2023-12-04T14:22:25;33.40;;;12.00;;
72117;SDS011;59992;47.490;8.736;2023-12-04T14:25:13;39.00;;;13.80;;
72117;SDS011;59992;47.490;8.736;2023-12-04T14:28:01;32.20;;;12.90;;
72117;SDS011;59992;47.490;8.736;2023-12-04T14:30:50;38.00;;;12.30;;
72117;SDS011;59992;47.490;8.736;2023-12-04T14:33:38;37.70;;;14.20;;
72117;SDS011;59992;47.490;8.736;2023-12-04T14:36:27;34.40;;;13.10;;
72117;SDS011;59992;47.490;8.736;2023-12-04T14:39:15;41.00;;;13.20;;
72117;SDS011;59992;47.490;8.736;2023-12-04T14:42:05;37.90;;;12.00;;
72117;SDS011;59992;47.490;8.736;2023-12-04T14:44:54;32.90;;;12.50;;
72117;SDS011;59992;47.490;8.736;2023-12-04T14:47:42;35.20;;;13.80;;
72117;SDS011;59992;47.490;8.736;2023-12-04T14:50:30;41.20;;;14.10;;
72117;SDS011;59992;47.490;8.736;2023-12-04T14:53:18;36.40;;;11.90;;
72117;SDS011;59992;47.490;8.736;2023-12-04T14:56:15;40.30;;;14.40;;
72117;SDS011;59992;47.490;8.736;2023-12-04T14:59:12;35.00;;;12.40;;
72117;SDS011;59992;47.490;8.736;2023-12-04T15:02:19;36.40;;;12.30;;
72117;SDS011;59992;47.490;8.736;2023-12-04T15:05:25;34.70;;;11.20;;
72117;SDS011;59992;47.490;8.736;2023-12-04T15:08:32;37.20;;;12.90;;
72117;SDS011;59992;47.490;8.736;2023-12-04T15:11:35;42.60;;;14.00;;
72117;SDS011;59992;47.490;8.736;2023-12-04T15:14:53;39.10;;;13.10;;
72117;SDS011;59992;47.490;8.736;2023-12-04T15:17:47;43.60;;;16.40;;
72117;SDS011;59992;47.490;8.736;2023-12-04T15:20:38;41.50;;;14.50;;
72117;SDS011;59992;47.490;8.736;2023-12-04T15:23:27;44.20;;;14.90;;
72117;SDS011;59992;47.490;8.736;2023-12-04T15:26:16;38.60;;;12.50;;
72117;SDS011;59992;47.490;8.736;2023-12-04T15:29:04;45.70;;;15.60;;
72117;SDS011;59992;47.490;8.736;2023-12-04T15:31:52;41.40;;;13.10;;
72117;SDS011;59992;47.490;8.736;2023-12-04T15:34:41;37.90;;;13.70;;
72117;SDS011;59992;47.490;8.736;2023-12-04T15:37:30;55.00;;;17.00;;
72117;SDS011;59992;47.490;8.736;2023-12-04T15:40:18;44.10;;;15.00;;
72117;SDS011;59992;47.490;8.736;2023-12-04T15:43:06;49.70;;;16.20;;
72117;SDS011;59992;47.490;8.736;2023-12-04T15:45:55;47.20;;;14.50;;
72117;SDS011;59992;47.490;8.736;2023-12-04T15:48:43;54.30;;;17.20;;
72117;SDS011;59992;47.490;8.736;2023-12-04T15:51:31;51.80;;;15.50;;
72117;SDS011;59992;47.490;8.736;2023-12-04T15:54:20;36.30;;;11.60;;
72117;SDS011;59992;47.490;8.736;2023-12-04T15:57:08;46.90;;;15.80;;
72117;SDS011;59992;47.490;8.736;2023-12-04T15:59:56;48.30;;;15.00;;
72117;SDS011;59992;47.490;8.736;2023-12-04T16:02:44;44.00;;;15.20;;
72117;SDS011;59992;47.490;8.736;2023-12-04T16:05:32;47.30;;;15.50;;
72117;SDS011;59992;47.490;8.736;2023-12-04T16:08:21;51.00;;;17.30;;
72117;SDS011;59992;47.490;8.736;2023-12-04T16:11:10;53.30;;;16.30;;
72117;SDS011;59992;47.490;8.736;2023-12-04T16:13:59;46.40;;;15.00;;
72117;SDS011;59992;47.490;8.736;2023-12-04T16:16:48;52.60;;;16.90;;
72117;SDS011;59992;47.490;8.736;2023-12-04T16:19:36;39.00;;;13.70;;
72117;SDS011;59992;47.490;8.736;2023-12-04T16:22:24;41.90;;;14.10;;
72117;SDS011;59992;47.490;8.736;2023-12-04T16:25:13;47.00;;;16.20;;
72117;SDS011;59992;47.490;8.736;2023-12-04T16:28:04;36.80;;;11.00;;
72117;SDS011;59992;47.490;8.736;2023-12-04T16:30:54;45.90;;;16.00;;
72117;SDS011;59992;47.490;8.736;2023-12-04T16:33:42;42.60;;;12.90;;
72117;SDS011;59992;47.490;8.736;2023-12-04T16:36:30;49.80;;;16.20;;
72117;SDS011;59992;47.490;8.736;2023-12-04T16:39:19;44.50;;;15.30;;